Time;durP1;ratioP1;P1;durP2;ratioP2;P2;SDS_P1;SDS_P2;PMS_P1;PMS_P2;Temp;Humidity;BMP_temperature;BMP_pressure;BME280_temperature;BME280_humidity;BME280_pressure;Samples;Min_cycle;Max_cycle;Signal;HPM_P1;HPM_P2
2023/06/13 00:02:18;;;;;;;13.97;5.30;;;;;;;23.40;71.75;98487.19;6215538;23;20602;-89
2023/06/13 00:04:45;;;;;;;7.63;4.70;;;;;;;23.37;71.89;98484.88;6189460;23;20164;-89
2023/06/13 00:07:12;;;;;;;11.40;5.13;;;;;;;23.35;71.58;98492.22;6216076;23;20149;-88
2023/06/13 00:09:38;;;;;;;9.67;4.73;;;;;;;23.32;71.67;98481.88;6189449;23;20532;-88
2023/06/13 00:12:05;;;;;;;7.83;4.70;;;;;;;23.29;72.08;98477.72;6215613;23;20150;-89
2023/06/13 00:14:30;;;;;;;7.90;4.63;;;;;;;23.24;72.11;98477.41;6215564;23;20152;-88
2023/06/13 00:16:57;;;;;;;9.23;5.03;;;;;;;23.16;72.25;98466.75;6215435;23;20174;-89
2023/06/13 00:19:23;;;;;;;11.10;4.70;;;;;;;23.07;72.51;98475.81;6215565;23;20154;-89
2023/06/13 00:21:49;;;;;;;6.10;4.57;;;;;;;22.99;72.98;98466.00;6215542;23;20552;-88
2023/06/13 00:24:14;;;;;;;8.57;4.97;;;;;;;22.92;72.84;98461.53;6189277;23;20157;-89
2023/06/13 00:26:40;;;;;;;8.13;4.07;;;;;;;22.83;73.12;98468.75;6215344;23;20146;-89
2023/06/13 00:29:05;;;;;;;13.23;4.97;;;;;;;22.79;73.63;98478.13;6215422;23;20264;-89
2023/06/13 00:31:32;;;;;;;6.67;4.67;;;;;;;22.69;73.44;98474.00;6215525;23;20220;-89
2023/06/13 00:34:01;;;;;;;6.00;3.50;;;;;;;22.61;73.91;98470.31;6215417;23;20157;-89
2023/06/13 00:36:27;;;;;;;7.23;3.80;;;;;;;22.57;73.85;98478.84;6215346;23;20146;-89
2023/06/13 00:38:56;;;;;;;9.87;4.87;;;;;;;22.53;73.99;98486.38;6215489;23;20538;-89
2023/06/13 00:41:22;;;;;;;14.50;4.93;;;;;;;22.47;73.66;98479.06;6189213;23;20161;-89
2023/06/13 00:43:47;;;;;;;9.80;3.77;;;;;;;22.48;74.00;98479.88;6215424;23;20150;-89
2023/06/13 00:46:17;;;;;;;7.33;3.90;;;;;;;22.44;74.18;98482.06;6189179;23;20460;-89
2023/06/13 00:48:44;;;;;;;7.50;4.20;;;;;;;22.41;73.91;98485.06;6215298;23;20228;-89
2023/06/13 00:51:14;;;;;;;7.60;4.20;;;;;;;22.37;73.87;98486.44;6215362;23;20154;-89
2023/06/13 00:53:40;;;;;;;10.93;4.63;;;;;;;22.36;73.71;98473.22;6189059;23;20162;-89
2023/06/13 00:56:07;;;;;;;10.00;4.60;;;;;;;22.33;73.54;98477.06;6215327;23;20288;-89
2023/06/13 00:58:33;;;;;;;8.73;4.27;;;;;;;22.30;73.96;98473.94;6215637;23;20146;-89
2023/06/13 01:00:59;;;;;;;7.03;4.03;;;;;;;22.26;74.40;98477.94;6215352;23;20146;-89
2023/06/13 01:03:25;;;;;;;7.37;4.70;;;;;;;22.22;74.12;98474.75;6215610;23;20153;-89
2023/06/13 01:05:50;;;;;;;8.60;4.70;;;;;;;22.19;73.75;98476.94;6215696;23;20150;-89
2023/06/13 01:08:24;;;;;;;8.37;4.70;;;;;;;22.21;73.70;98470.44;6215123;23;20481;-89
2023/06/13 01:11:04;;;;;;;8.90;4.90;;;;;;;22.20;73.50;98471.44;6189938;23;20165;-89
2023/06/13 01:13:47;;;;;;;7.93;4.50;;;;;;;22.17;73.50;98469.09;6217136;23;20152;-89
2023/06/13 01:16:25;;;;;;;10.67;5.60;;;;;;;22.25;73.28;98473.59;6217302;23;20134;-89
2023/06/13 01:18:53;;;;;;;8.97;4.73;;;;;;;22.26;73.32;98476.09;6217536;23;20150;-89
2023/06/13 01:21:20;;;;;;;8.07;4.80;;;;;;;22.18;72.64;98467.25;6217212;23;20161;-88
2023/06/13 01:23:57;;;;;;;10.43;4.30;;;;;;;22.10;73.02;98468.13;6190803;23;20257;-89
2023/06/13 01:26:41;;;;;;;10.17;4.93;;;;;;;22.04;73.10;98471.44;6217493;23;20137;-89
2023/06/13 01:29:07;;;;;;;9.40;4.87;;;;;;;22.00;73.53;98465.63;6217018;23;20173;-89
2023/06/13 01:31:33;;;;;;;6.63;4.37;;;;;;;21.98;73.44;98461.47;6217438;23;20161;-89
2023/06/13 01:34:00;;;;;;;15.33;5.33;;;;;;;21.92;73.76;98464.81;6216873;23;20585;-89
2023/06/13 01:36:26;;;;;;;7.37;4.73;;;;;;;21.93;73.56;98463.81;6216961;23;20150;-89
2023/06/13 01:38:52;;;;;;;10.60;4.57;;;;;;;21.85;73.90;98471.78;6217006;23;20142;-89
2023/06/13 01:41:18;;;;;;;6.50;4.53;;;;;;;21.81;74.39;98471.28;6216934;23;20247;-89
2023/06/13 01:43:43;;;;;;;8.70;4.53;;;;;;;21.83;74.22;98465.75;6217170;23;20146;-88
2023/06/13 01:46:30;;;;;;;7.13;4.40;;;;;;;21.84;74.22;98467.44;6216912;23;20211;-89
2023/06/13 01:49:53;;;;;;;9.33;5.13;;;;;;;21.73;73.82;98465.09;6216819;23;20165;-89
2023/06/13 01:52:37;;;;;;;8.53;4.60;;;;;;;21.61;73.90;98461.13;6096869;23;20667;-89
2023/06/13 01:55:08;;;;;;;9.80;4.33;;;;;;;21.56;73.63;98464.28;6072266;23;20489;-89
2023/06/13 01:57:39;;;;;;;7.10;4.43;;;;;;;21.58;73.83;98461.44;6146458;23;20150;-89
2023/06/13 02:00:06;;;;;;;7.23;4.07;;;;;;;21.57;74.06;98465.94;6217090;23;20135;-89
2023/06/13 02:02:33;;;;;;;6.00;3.87;;;;;;;21.54;74.50;98468.94;6216418;23;20176;-89
2023/06/13 02:04:58;;;;;;;6.97;3.47;;;;;;;21.52;75.24;98465.59;6216769;23;20195;-89
2023/06/13 02:07:24;;;;;;;6.23;3.67;;;;;;;21.54;75.02;98463.59;6217047;23;20176;-89
2023/06/13 02:09:50;;;;;;;5.93;3.30;;;;;;;21.61;74.74;98475.28;6190420;23;20503;-89
2023/06/13 02:12:16;;;;;;;5.83;3.30;;;;;;;21.60;74.35;98470.94;6216673;23;20150;-89
2023/06/13 02:14:42;;;;;;;3.70;2.80;;;;;;;21.53;75.16;98469.94;6216576;23;20145;-89
2023/06/13 02:17:08;;;;;;;4.30;2.93;;;;;;;21.47;75.74;98480.41;6216968;23;20585;-89
2023/06/13 02:19:34;;;;;;;7.00;3.03;;;;;;;21.39;76.38;98474.09;6216534;23;20145;-89
2023/06/13 02:22:00;;;;;;;4.80;3.13;;;;;;;21.39;76.74;98476.75;6216436;23;20173;-89
2023/06/13 02:24:25;;;;;;;4.80;3.37;;;;;;;21.41;76.68;98477.41;6216482;23;20150;-89
2023/06/13 02:26:51;;;;;;;6.43;2.67;;;;;;;21.43;76.91;98474.59;6190636;23;20228;-89
2023/06/13 02:29:18;;;;;;;5.13;2.90;;;;;;;21.47;77.09;98477.75;6190223;23;20272;-88
2023/06/13 02:31:43;;;;;;;4.33;3.33;;;;;;;21.48;76.66;98474.09;6216767;23;20154;-89
2023/06/13 02:34:09;;;;;;;5.73;2.83;;;;;;;21.46;76.43;98474.28;6216354;23;20236;-89
2023/06/13 02:36:36;;;;;;;5.33;3.47;;;;;;;21.42;76.82;98479.09;6216435;23;20150;-89
2023/06/13 02:39:02;;;;;;;6.77;3.27;;;;;;;21.36;77.15;98484.25;6216345;23;20596;-89
2023/06/13 02:41:28;;;;;;;7.17;3.57;;;;;;;21.39;77.37;98478.59;6216322;23;20146;-88
2023/06/13 02:43:53;;;;;;;5.27;3.73;;;;;;;21.32;77.54;98481.09;6216180;23;20156;-89
2023/06/13 02:46:19;;;;;;;9.50;3.53;;;;;;;21.28;77.91;98493.06;6190147;23;20233;-89
2023/06/13 02:48:44;;;;;;;4.13;3.17;;;;;;;21.30;78.24;98485.72;6216233;23;20184;-89
2023/06/13 02:51:10;;;;;;;5.40;3.20;;;;;;;21.31;78.89;98484.75;6216598;23;20154;-88
2023/06/13 02:53:35;;;;;;;8.27;3.50;;;;;;;21.31;78.60;98491.91;6190252;23;20157;-89
2023/06/13 02:56:01;;;;;;;7.70;3.70;;;;;;;21.26;79.02;98495.06;6190381;23;20161;-88
2023/06/13 02:58:27;;;;;;;9.57;3.87;;;;;;;21.23;79.30;98490.06;6216190;23;20169;-88
2023/06/13 03:00:52;;;;;;;8.43;3.43;;;;;;;21.22;79.74;98500.88;6216079;23;20482;-89
2023/06/13 03:03:18;;;;;;;6.90;2.97;;;;;;;21.21;79.44;98499.22;6216565;23;20472;-89
2023/06/13 03:05:49;;;;;;;4.30;2.63;;;;;;;21.24;79.48;98501.56;6216133;23;20150;-89
2023/06/13 03:08:18;;;;;;;4.77;3.30;;;;;;;21.26;79.53;98500.41;6215945;23;20162;-89
2023/06/13 03:10:45;;;;;;;6.03;3.10;;;;;;;21.27;79.25;98502.06;6216113;23;20150;-89
2023/06/13 03:13:11;;;;;;;6.80;3.00;;;;;;;21.33;78.97;98498.72;6190306;23;20166;-89
2023/06/13 03:15:36;;;;;;;5.13;3.30;;;;;;;21.30;78.67;98506.25;6216103;23;20150;-89
2023/06/13 03:18:03;;;;;;;5.83;3.60;;;;;;;21.28;78.86;98508.22;6189777;23;20543;-89
2023/06/13 03:20:30;;;;;;;4.17;2.93;;;;;;;21.21;78.80;98508.03;6215971;23;20225;-89
2023/06/13 03:22:55;;;;;;;5.47;3.43;;;;;;;21.21;78.80;98501.88;6216003;23;20215;-89
2023/06/13 03:25:21;;;;;;;9.67;3.10;;;;;;;21.32;78.21;98505.09;6215871;23;20154;-89
2023/06/13 03:27:46;;;;;;;5.93;3.67;;;;;;;21.39;77.90;98507.91;6215886;23;20240;-89
2023/06/13 03:30:12;;;;;;;7.37;3.40;;;;;;;21.36;77.87;98503.75;6215820;23;20236;-90
2023/06/13 03:32:38;;;;;;;4.43;2.90;;;;;;;21.26;78.22;98504.88;6215700;23;20146;-89
2023/06/13 03:35:03;;;;;;;4.63;2.70;;;;;;;21.27;78.38;98512.75;6215742;23;20160;-89
2023/06/13 03:37:29;;;;;;;4.40;2.70;;;;;;;21.36;77.96;98516.22;6215921;23;20468;-89
2023/06/13 03:39:54;;;;;;;5.23;3.07;;;;;;;21.46;76.90;98510.78;6189575;23;20154;-89
2023/06/13 03:42:20;;;;;;;4.90;3.37;;;;;;;21.43;76.77;98512.75;6215847;23;20535;-88
2023/06/13 03:44:48;;;;;;;4.87;3.30;;;;;;;21.34;77.60;98516.41;6215834;23;20154;-89
2023/06/13 03:47:14;;;;;;;6.00;4.03;;;;;;;21.29;77.78;98517.91;6215709;23;20184;-89
2023/06/13 03:49:40;;;;;;;5.37;3.53;;;;;;;21.30;77.57;98520.38;6215785;23;20232;-89
2023/06/13 03:52:06;;;;;;;5.63;3.80;;;;;;;21.34;77.48;98518.22;6189385;23;20196;-89
2023/06/13 03:54:31;;;;;;;8.43;3.60;;;;;;;21.33;77.78;98519.25;6215612;23;20146;-89
2023/06/13 03:56:56;;;;;;;5.13;3.47;;;;;;;21.32;78.06;98515.75;6215685;23;20145;-88
2023/06/13 03:59:22;;;;;;;6.13;3.63;;;;;;;21.34;78.13;98519.06;6215751;23;20145;-89
2023/06/13 04:01:47;;;;;;;4.57;3.13;;;;;;;21.31;78.76;98526.56;6189381;23;20154;-89
2023/06/13 04:04:13;;;;;;;5.13;3.27;;;;;;;21.29;78.84;98526.72;6215647;23;20153;-90
2023/06/13 04:06:38;;;;;;;5.57;2.83;;;;;;;21.28;78.82;98521.53;6215582;23;20176;-89
2023/06/13 04:09:05;;;;;;;5.43;3.50;;;;;;;21.29;78.91;98526.72;6215579;23;20640;-89
2023/06/13 04:11:33;;;;;;;9.37;3.17;;;;;;;21.33;79.12;98528.06;6216036;23;20153;-89
2023/06/13 04:14:00;;;;;;;7.60;3.20;;;;;;;21.34;79.19;98528.91;6188480;23;20154;-89
2023/06/13 04:16:25;;;;;;;9.07;3.30;;;;;;;21.33;79.18;98528.06;6214109;23;20149;-89
2023/06/13 04:18:54;;;;;;;6.00;2.80;;;;;;;21.27;79.04;98531.41;6213921;23;20149;-89
2023/06/13 04:21:21;;;;;;;4.73;2.90;;;;;;;21.38;78.71;98533.75;6214535;23;20168;-89
2023/06/13 04:23:48;;;;;;;12.57;3.47;;;;;;;21.45;78.82;98536.59;6213924;23;20573;-90
2023/06/13 04:26:17;;;;;;;6.13;3.40;;;;;;;21.41;79.18;98535.25;6188702;23;20160;-89
2023/06/13 04:28:43;;;;;;;6.37;3.73;;;;;;;21.32;79.57;98541.56;6188633;23;20181;-89
2023/06/13 04:31:10;;;;;;;6.83;3.43;;;;;;;21.31;80.46;98546.06;6215757;23;20154;-89
2023/06/13 04:33:39;;;;;;;11.27;4.50;;;;;;;21.38;80.92;98540.94;6189340;23;20153;-89
2023/06/13 04:36:05;;;;;;;12.50;3.97;;;;;;;21.40;81.31;98549.59;6189405;23;20173;-89
2023/06/13 04:38:35;;;;;;;5.37;3.80;;;;;;;21.42;80.83;98550.25;6215482;23;20227;-89
2023/06/13 04:41:01;;;;;;;5.43;3.47;;;;;;;21.38;81.25;98552.41;6215432;23;20573;-90
2023/06/13 04:43:33;;;;;;;5.43;3.30;;;;;;;21.43;81.12;98562.59;6215834;23;20177;-90
2023/06/13 04:46:03;;;;;;;9.30;3.30;;;;;;;21.59;80.52;98564.47;6217220;23;20188;-89
2023/06/13 04:48:30;;;;;;;7.07;3.17;;;;;;;21.62;80.55;98558.81;6217422;23;20250;-89
2023/06/13 04:50:58;;;;;;;10.77;4.13;;;;;;;21.65;81.01;98563.78;6217484;23;20165;-90
2023/06/13 04:53:26;;;;;;;8.57;4.20;;;;;;;21.60;81.11;98566.13;6217700;23;20451;-89
2023/06/13 04:55:52;;;;;;;8.03;4.00;;;;;;;21.68;80.99;98571.47;6217370;23;20162;-89
2023/06/13 04:58:18;;;;;;;7.10;3.67;;;;;;;21.60;80.68;98558.97;6217351;23;20153;-89
2023/06/13 05:00:48;;;;;;;7.53;3.97;;;;;;;21.64;80.70;98567.47;6217337;23;20481;-88
2023/06/13 05:03:16;;;;;;;7.77;4.23;;;;;;;21.64;81.28;98567.47;6191821;23;20523;-89
2023/06/13 05:05:46;;;;;;;9.00;3.43;;;;;;;21.70;80.96;98572.13;6217301;23;20180;-89
2023/06/13 05:08:13;;;;;;;10.07;4.07;;;;;;;21.75;80.76;98572.50;6217236;23;20166;-89
2023/06/13 05:10:41;;;;;;;7.47;4.53;;;;;;;21.81;80.54;98577.16;6217200;23;20233;-89
2023/06/13 05:13:07;;;;;;;6.83;4.63;;;;;;;21.86;80.76;98580.19;6191022;23;20154;-89
2023/06/13 05:15:32;;;;;;;8.27;4.17;;;;;;;21.91;80.68;98585.88;6191016;23;20237;-89
2023/06/13 05:17:58;;;;;;;8.83;4.13;;;;;;;21.95;81.26;98579.22;6217815;23;20146;-89
2023/06/13 05:20:26;;;;;;;8.90;5.13;;;;;;;22.02;81.09;98575.72;6217093;23;20150;-88
2023/06/13 05:22:53;;;;;;;7.47;5.07;;;;;;;22.11;80.42;98579.22;6217311;23;20162;-88
2023/06/13 05:25:20;;;;;;;7.83;5.47;;;;;;;22.10;80.56;98582.06;6217125;23;20150;-89
2023/06/13 05:27:46;;;;;;;9.80;5.60;;;;;;;22.11;80.90;98586.41;6216980;23;20169;-88
2023/06/13 05:30:11;;;;;;;11.20;6.07;;;;;;;22.15;80.57;98587.72;6217026;23;20153;-88
2023/06/13 05:32:37;;;;;;;9.17;5.37;;;;;;;22.24;80.45;98587.56;6217003;23;20225;-88
2023/06/13 05:35:03;;;;;;;7.93;5.50;;;;;;;22.43;80.78;98581.88;6217031;23;20146;-88
2023/06/13 05:37:29;;;;;;;10.00;6.53;;;;;;;22.57;81.00;98583.84;6216969;23;20164;-88
2023/06/13 05:39:55;;;;;;;9.07;5.00;;;;;;;22.68;80.66;98584.53;6190616;23;20492;-89
2023/06/13 05:42:21;;;;;;;9.97;5.27;;;;;;;22.79;80.37;98586.84;6217212;23;20223;-88
2023/06/13 05:44:46;;;;;;;8.77;5.60;;;;;;;22.88;79.88;98589.31;6214335;23;20224;-89
2023/06/13 05:47:12;;;;;;;11.40;6.40;;;;;;;22.91;80.19;98590.81;6216485;23;20208;-89
2023/06/13 05:49:38;;;;;;;8.60;5.33;;;;;;;22.97;79.92;98599.00;6216441;23;20177;-89
2023/06/13 05:52:04;;;;;;;11.23;6.83;;;;;;;23.11;79.37;98592.13;6190044;23;20162;-89
2023/06/13 05:54:32;;;;;;;9.20;6.07;;;;;;;23.22;79.59;98602.41;6216673;23;20165;-90
2023/06/13 05:57:00;;;;;;;8.47;5.60;;;;;;;23.33;79.62;98598.53;6186085;23;20182;-90
2023/06/13 05:59:26;;;;;;;12.03;6.53;;;;;;;23.43;79.81;98591.97;6185345;23;20155;-89
2023/06/13 06:01:52;;;;;;;9.13;6.07;;;;;;;23.54;79.71;98596.94;6186471;23;20224;-89
2023/06/13 06:04:17;;;;;;;9.80;7.00;;;;;;;23.65;80.04;98596.56;6161342;23;20161;-89
2023/06/13 06:06:42;;;;;;;11.23;6.67;;;;;;;23.76;79.83;98601.53;6186699;23;20238;-90
2023/06/13 06:09:08;;;;;;;13.17;7.00;;;;;;;23.86;79.73;98603.94;6186096;23;20478;-89
2023/06/13 06:11:35;;;;;;;13.00;6.13;;;;;;;23.95;78.92;98596.72;6160572;23;20154;-89
2023/06/13 06:14:01;;;;;;;10.47;6.03;;;;;;;24.02;78.49;98597.66;6160278;23;20150;-90
2023/06/13 06:16:26;;;;;;;13.13;7.37;;;;;;;24.01;77.93;98591.47;6186505;23;20217;-90
2023/06/13 06:18:53;;;;;;;12.33;6.93;;;;;;;24.04;76.90;98600.97;6160806;23;20163;-90
2023/06/13 06:21:19;;;;;;;15.03;6.27;;;;;;;24.29;76.37;98589.91;6186281;23;20194;-90
2023/06/13 06:23:45;;;;;;;11.77;6.07;;;;;;;24.42;74.65;98597.38;6160347;23;20232;-90
2023/06/13 06:26:11;;;;;;;12.10;6.90;;;;;;;24.45;75.69;98594.31;6186957;23;20146;-91
2023/06/13 06:28:36;;;;;;;9.60;5.90;;;;;;;24.54;76.28;98603.09;6186275;23;20511;-91
2023/06/13 06:31:05;;;;;;;19.00;7.40;;;;;;;24.64;74.87;98601.84;6186483;23;20162;-90
2023/06/13 06:33:31;;;;;;;15.63;6.80;;;;;;;24.68;73.90;98596.94;6160471;23;20154;-90
2023/06/13 06:35:56;;;;;;;7.47;4.80;;;;;;;24.69;70.70;98598.59;6186227;23;20150;-90
2023/06/13 06:38:22;;;;;;;9.97;5.60;;;;;;;24.70;69.31;98602.94;6160684;23;20150;-90
2023/06/13 06:40:48;;;;;;;10.00;4.80;;;;;;;24.73;68.06;98602.59;6185964;23;20147;-89
2023/06/13 06:43:13;;;;;;;12.37;5.80;;;;;;;24.85;68.21;98596.63;6186405;23;20150;-90
2023/06/13 06:45:39;;;;;;;5.73;3.50;;;;;;;24.90;67.56;98598.75;6160208;23;20154;-89
2023/06/13 06:48:04;;;;;;;7.80;3.80;;;;;;;24.86;66.08;98605.50;6185861;23;20249;-89
2023/06/13 06:50:30;;;;;;;5.20;3.40;;;;;;;24.98;66.80;98601.34;6186180;23;20150;-89
2023/06/13 06:52:55;;;;;;;7.30;3.40;;;;;;;25.08;65.00;98601.09;6186131;23;20154;-89
2023/06/13 06:55:21;;;;;;;7.00;3.20;;;;;;;24.96;61.60;98604.22;6186132;23;20229;-90
2023/06/13 06:57:46;;;;;;;6.00;3.20;;;;;;;24.90;62.44;98604.94;6159984;23;20161;-89
2023/06/13 07:00:14;;;;;;;5.93;2.73;;;;;;;24.86;62.39;98605.50;6186713;23;20164;-89
2023/06/13 07:02:43;;;;;;;7.60;2.70;;;;;;;24.92;62.11;98592.19;6160192;23;20182;-89
2023/06/13 07:05:09;;;;;;;7.00;3.17;;;;;;;24.97;63.27;98599.69;6186268;23;20177;-90
2023/06/13 07:07:35;;;;;;;5.40;3.10;;;;;;;25.02;63.72;98594.59;6185603;23;20171;-89
2023/06/13 07:10:02;;;;;;;6.20;3.30;;;;;;;25.14;63.89;98594.94;6185479;23;20154;-89
2023/06/13 07:12:27;;;;;;;6.17;2.97;;;;;;;25.15;64.39;98588.59;6159945;23;20534;-90
2023/06/13 07:14:54;;;;;;;6.30;2.67;;;;;;;25.29;65.58;98582.38;6186043;23;20689;-90
2023/06/13 07:17:21;;;;;;;5.73;3.20;;;;;;;25.36;66.20;98583.28;6185879;23;20146;-90
2023/06/13 07:19:47;;;;;;;5.67;2.90;;;;;;;25.31;62.21;98585.72;6185913;23;20150;-90
2023/06/13 07:22:12;;;;;;;6.73;3.47;;;;;;;25.16;59.98;98585.69;6185882;23;20224;-91
2023/06/13 07:24:38;;;;;;;6.23;3.23;;;;;;;25.24;60.36;98579.41;6186515;23;20160;-90
2023/06/13 07:27:04;;;;;;;7.73;3.53;;;;;;;25.22;60.87;98584.13;6186048;23;20146;-90
2023/06/13 07:29:32;;;;;;;5.77;2.73;;;;;;;25.50;61.13;98585.13;6160106;23;20186;-91
2023/06/13 07:31:57;;;;;;;9.25;2.88;;;;;;;25.55;61.55;98583.53;6186079;23;20228;-91
2023/06/13 07:34:23;;;;;;;7.63;2.87;;;;;;;25.70;61.91;98590.75;6160243;23;20191;-91
2023/06/13 07:36:53;;;;;;;7.47;2.90;;;;;;;25.83;60.70;98589.03;6160685;23;20208;-92
2023/06/13 07:39:41;;;;;;;3.93;2.47;;;;;;;25.81;57.59;98587.56;6160648;23;20155;-93
2023/06/13 07:42:55;;;;;;;;;;;;;;;;;;;;;
2023/06/13 07:46:11;;;;;;;;;;;;;;;;;;;;;
2023/06/13 09:19:05;;;;;;;;;;;;;;;;;;;;;
2023/06/13 12:21:41;;;;;;;7.80;4.85;;;;;;;31.17;37.56;98390.28;6200633;23;20268;-86
2023/06/13 12:24:08;;;;;;;7.38;3.83;;;;;;;31.28;35.58;98386.81;6183087;23;20154;-88
2023/06/13 12:26:35;;;;;;;8.32;5.45;;;;;;;31.34;35.76;98388.59;6213548;23;20150;-88
2023/06/13 12:29:07;;;;;;;5.65;3.95;;;;;;;31.25;36.87;98389.97;6214769;23;20633;-89
2023/06/13 12:31:36;;;;;;;7.93;4.03;;;;;;;31.17;38.28;98382.16;6214652;23;20130;-89
2023/06/13 12:34:31;;;;;;;8.57;4.60;;;;;;;31.27;37.60;98380.56;6188640;23;20158;-89
2023/06/13 12:37:04;;;;;;;8.32;4.25;;;;;;;31.51;37.48;98384.19;6215005;23;20134;-89
2023/06/13 12:39:30;;;;;;;10.55;4.22;;;;;;;31.49;36.02;98380.91;6215800;23;20312;-89
2023/06/13 12:42:03;;;;;;;5.72;3.88;;;;;;;31.67;37.45;98379.97;6214954;23;20177;-88
2023/06/13 12:44:34;;;;;;;5.63;4.35;;;;;;;31.79;38.11;98376.22;6214937;23;20138;-89
2023/06/13 12:47:02;;;;;;;6.75;3.75;;;;;;;31.56;37.46;98378.91;6214152;23;20810;-91
2023/06/13 12:49:37;;;;;;;6.38;3.78;;;;;;;31.24;36.70;98380.19;6213498;23;20208;-89
2023/06/13 12:52:05;;;;;;;6.10;4.15;;;;;;;31.19;37.28;98383.59;6214729;23;20211;-86
2023/06/13 12:54:35;;;;;;;6.90;4.00;;;;;;;31.24;38.81;98375.59;6214688;23;20157;-89
2023/06/13 12:57:10;;;;;;;6.88;4.05;;;;;;;31.07;37.53;98380.03;6214656;23;20519;-89
2023/06/13 12:59:45;;;;;;;6.72;3.90;;;;;;;31.10;37.21;98370.63;6188473;23;20148;-89
2023/06/13 13:02:32;;;;;;;;;;;;;;;;;;;;;
2023/06/13 13:05:00;;;;;;;5.88;3.97;;;;;;;31.21;38.49;98364.44;6214953;23;20217;-90
2023/06/13 13:07:37;;;;;;;;;;;;;;;;;;;;;
2023/06/13 13:10:03;;;;;;;5.90;3.85;;;;;;;31.69;37.09;98370.56;6215979;23;20221;-88
2023/06/13 13:12:29;;;;;;;12.27;4.47;;;;;;;31.87;36.84;98370.44;6216057;23;20491;-89
2023/06/13 13:14:55;;;;;;;7.43;3.67;;;;;;;32.08;36.14;98371.78;6216467;23;20228;-89
2023/06/13 13:17:20;;;;;;;9.00;4.82;;;;;;;32.08;37.45;98369.88;6216741;23;20156;-90
2023/06/13 13:19:52;;;;;;;6.55;5.03;;;;;;;31.84;35.61;98370.09;6190549;23;20478;-91
2023/06/13 13:22:21;;;;;;;9.25;4.45;;;;;;;31.43;36.47;98373.66;6188635;23;20169;-87
2023/06/13 13:24:46;;;;;;;8.68;4.45;;;;;;;31.34;37.59;98372.34;6190110;23;20170;-87
2023/06/13 13:27:12;;;;;;;9.05;5.38;;;;;;;31.46;37.13;98374.06;6216158;23;20566;-87
2023/06/13 13:29:37;;;;;;;6.32;4.97;;;;;;;31.54;38.01;98362.06;6216564;23;20181;-87
2023/06/13 13:32:04;;;;;;;6.55;5.30;;;;;;;31.71;37.49;98360.28;6216520;23;20224;-87
2023/06/13 13:34:29;;;;;;;8.63;5.30;;;;;;;31.75;38.00;98366.91;6190278;23;20158;-86
2023/06/13 13:36:55;;;;;;;8.93;4.95;;;;;;;31.85;36.64;98364.44;6216068;23;20224;-86
2023/06/13 13:39:21;;;;;;;6.15;4.63;;;;;;;31.95;34.28;98356.53;6216460;23;20166;-86
2023/06/13 13:41:46;;;;;;;9.20;5.03;;;;;;;32.13;34.50;98364.56;6216471;23;20161;-87
2023/06/13 13:44:12;;;;;;;8.35;5.32;;;;;;;31.98;35.22;98363.38;6189719;23;20249;-87
2023/06/13 13:46:37;;;;;;;6.82;4.90;;;;;;;31.90;36.61;98356.44;6189687;23;20154;-87
2023/06/13 13:49:05;;;;;;;10.07;5.15;;;;;;;31.98;36.44;98358.78;6189696;23;20182;-87
2023/06/13 13:51:33;;;;;;;7.00;3.85;;;;;;;32.06;36.44;98363.88;6215865;23;20273;-88
2023/06/13 13:54:11;;;;;;;;;;;;;;;;;;;;;
2023/06/13 13:56:37;;;;;;;5.53;4.10;;;;;;;32.07;37.25;98368.25;6215842;23;20218;-87
2023/06/13 13:59:02;;;;;;;8.23;4.57;;;;;;;32.21;36.84;98375.06;6189690;23;20177;-87
2023/06/13 14:01:28;;;;;;;5.65;3.80;;;;;;;32.38;35.56;98372.47;6189988;23;20162;-87
2023/06/13 14:03:53;;;;;;;6.50;4.50;;;;;;;32.43;37.66;98374.47;6216664;23;20650;-86
2023/06/13 14:06:19;;;;;;;7.30;4.70;;;;;;;32.57;34.55;98370.47;6189600;23;20165;-86
2023/06/13 14:08:44;;;;;;;6.07;4.13;;;;;;;32.62;34.96;98370.56;6189647;23;20200;-87
2023/06/13 14:11:10;;;;;;;8.90;5.35;;;;;;;32.88;35.49;98364.56;6189360;23;20503;-87
2023/06/13 14:13:35;;;;;;;7.35;5.15;;;;;;;32.94;34.31;98360.06;6189334;23;20154;-88
2023/06/13 14:16:02;;;;;;;8.68;5.75;;;;;;;32.81;33.42;98361.16;6189812;23;20233;-86
2023/06/13 14:18:27;;;;;;;8.43;5.80;;;;;;;32.70;33.89;98365.59;6189770;23;20150;-87
2023/06/13 14:20:53;;;;;;;8.50;6.47;;;;;;;32.72;33.63;98358.03;6215727;23;20244;-86
2023/06/13 14:23:18;;;;;;;9.63;5.88;;;;;;;32.68;33.35;98351.41;6215977;23;20146;-86
2023/06/13 14:25:44;;;;;;;8.60;5.50;;;;;;;32.66;33.96;98348.13;6216291;23;20645;-87
2023/06/13 14:28:10;;;;;;;8.70;5.55;;;;;;;32.91;33.00;98345.09;6215963;23;20173;-86
2023/06/13 14:30:35;;;;;;;6.13;5.07;;;;;;;32.90;32.05;98342.59;6189689;23;20153;-87
2023/06/13 14:33:01;;;;;;;8.07;5.63;;;;;;;32.86;32.54;98342.28;6215809;23;20152;-87
2023/06/13 14:35:29;;;;;;;9.15;6.40;;;;;;;32.91;33.62;98342.38;6215741;23;20219;-87
2023/06/13 14:37:55;;;;;;;10.10;5.45;;;;;;;32.81;33.59;98344.88;6215728;23;20604;-87
2023/06/13 14:40:20;;;;;;;7.43;5.18;;;;;;;32.85;32.77;98345.22;6215601;23;20150;-86
2023/06/13 14:42:47;;;;;;;8.27;5.53;;;;;;;32.76;32.86;98342.88;6189371;23;20158;-87
2023/06/13 14:45:19;;;;;;;8.43;5.45;;;;;;;32.65;33.65;98332.09;6189554;23;20160;-87
2023/06/13 14:47:44;;;;;;;7.30;5.38;;;;;;;32.53;34.38;98336.72;6215712;23;20141;-87
2023/06/13 14:50:12;;;;;;;8.82;5.88;;;;;;;32.33;34.41;98338.97;6189546;23;20492;-87
2023/06/13 14:52:38;;;;;;;9.52;6.45;;;;;;;32.40;34.24;98343.19;6215759;23;20150;-88
2023/06/13 14:55:04;;;;;;;9.18;6.13;;;;;;;32.36;34.16;98333.91;6215691;23;20146;-87
2023/06/13 14:57:29;;;;;;;7.05;5.07;;;;;;;32.24;33.96;98341.22;6215671;23;20152;-87
2023/06/13 14:59:55;;;;;;;11.88;5.90;;;;;;;32.15;33.98;98335.31;6188899;23;20157;-87
2023/06/13 15:02:20;;;;;;;8.45;5.63;;;;;;;32.18;33.30;98332.16;6215681;23;20241;-88
2023/06/13 15:04:46;;;;;;;6.93;5.20;;;;;;;32.21;33.79;98328.97;6215175;23;20150;-87
2023/06/13 15:07:11;;;;;;;8.20;5.63;;;;;;;32.04;34.77;98333.47;6215634;23;20211;-87
2023/06/13 15:09:37;;;;;;;8.35;6.30;;;;;;;32.13;35.42;98333.91;6186872;23;20182;-88
2023/06/13 15:12:04;;;;;;;7.20;5.57;;;;;;;32.22;34.66;98322.50;6214698;23;20149;-87
2023/06/13 15:14:29;;;;;;;7.35;5.57;;;;;;;32.35;34.17;98318.69;6215029;23;20211;-87
2023/06/13 15:16:55;;;;;;;8.00;5.55;;;;;;;32.21;34.18;98323.53;6214050;23;20154;-88
2023/06/13 15:19:20;;;;;;;8.15;5.50;;;;;;;32.17;34.01;98326.97;6214634;23;20547;-88
2023/06/13 15:21:46;;;;;;;7.68;5.85;;;;;;;32.29;33.41;98329.66;6215018;23;20165;-89
2023/06/13 15:24:11;;;;;;;8.70;6.53;;;;;;;32.15;35.03;98327.19;6214325;23;20181;-88
2023/06/13 15:26:37;;;;;;;7.22;5.50;;;;;;;32.12;33.97;98324.97;6214775;23;20146;-88
2023/06/13 15:29:05;;;;;;;8.70;5.13;;;;;;;32.17;34.24;98337.81;6213874;23;20566;-89
2023/06/13 15:31:30;;;;;;;7.15;5.32;;;;;;;32.22;33.44;98336.03;6214397;23;20146;-88
2023/06/13 15:33:56;;;;;;;7.32;6.43;;;;;;;32.17;35.16;98344.06;6214827;23;20216;-89
2023/06/13 15:36:26;;;;;;;8.60;6.85;;;;;;;32.00;34.47;98340.41;6188267;23;20154;-89
2023/06/13 15:38:53;;;;;;;8.88;5.95;;;;;;;32.00;34.43;98347.72;6214047;23;20138;-89
2023/06/13 15:41:19;;;;;;;6.03;4.95;;;;;;;32.11;33.77;98345.00;6214121;23;20621;-89
2023/06/13 15:43:45;;;;;;;6.80;5.10;;;;;;;32.13;33.41;98358.31;6214994;23;20188;-92
2023/06/13 15:46:13;;;;;;;7.93;5.38;;;;;;;32.16;32.01;98347.84;6188176;23;20181;-91
2023/06/13 15:48:41;;;;;;;7.47;5.85;;;;;;;32.16;32.64;98355.16;6214925;23;20174;-91
2023/06/13 15:51:07;;;;;;;6.63;5.50;;;;;;;32.12;33.49;98348.56;6189105;23;20162;-92
2023/06/13 15:53:34;;;;;;;7.13;6.38;;;;;;;32.01;34.44;98355.63;6215142;23;20461;-91
2023/06/13 15:56:03;;;;;;;10.60;6.32;;;;;;;32.00;34.97;98347.72;6215314;23;20234;-92
2023/06/13 15:58:29;;;;;;;8.43;5.75;;;;;;;32.02;33.80;98351.84;6188582;23;20177;-92
2023/06/13 16:00:58;;;;;;;8.80;6.88;;;;;;;31.95;34.33;98356.53;6189137;23;20510;-91
2023/06/13 16:03:23;;;;;;;9.50;5.88;;;;;;;31.82;35.42;98356.78;6188072;23;20581;-91
2023/06/13 16:06:03;;;;;;;9.05;5.75;;;;;;;31.71;35.38;98360.28;6188647;23;20153;-91
2023/06/13 16:08:32;;;;;;;10.65;6.75;;;;;;;31.66;36.12;98370.22;6215599;23;20172;-91
2023/06/13 16:11:31;;;;;;;7.85;5.82;;;;;;;31.56;35.61;98365.34;6214934;23;20188;-91
2023/06/13 16:13:57;;;;;;;8.68;6.00;;;;;;;31.56;35.02;98374.31;6214158;23;20138;-91